Time;durP1;ratioP1;P1;durP2;ratioP2;P2;SDS_P1;SDS_P2;PMS_P1;PMS_P2;Temp;Humidity;BMP_temperature;BMP_pressure;BME280_temperature;BME280_humidity;BME280_pressure;Samples;Min_cycle;Max_cycle;Signal;HPM_P1;HPM_P2
2023/08/06 15:44:25;;;;;;;2.78;2.15;;;;;;;27.61;72.24;97881.00;5125802;27;20548;-57
2023/08/06 15:46:52;;;;;;;2.20;1.83;;;;;;;27.63;71.66;97884.16;5126076;27;20669;-58
2023/08/06 15:49:19;;;;;;;2.47;1.80;;;;;;;27.47;70.79;97887.72;5126339;27;20203;-59
2023/08/06 15:51:46;;;;;;;2.30;1.95;;;;;;;27.45;70.44;97884.53;5125975;27;20204;-56
2023/08/06 15:54:13;;;;;;;3.13;1.83;;;;;;;27.39;70.68;97882.91;5125391;27;20193;-59
2023/08/06 15:56:40;;;;;;;3.22;2.13;;;;;;;27.24;71.55;97886.97;5125971;27;20192;-59
2023/08/06 15:59:22;;;;;;;2.10;1.75;;;;;;;27.35;75.44;97881.84;5125797;27;20611;-59
2023/08/06 16:01:50;;;;;;;3.17;2.50;;;;;;;27.27;74.30;97878.59;5125677;27;20203;-59
2023/08/06 16:04:17;;;;;;;3.53;2.08;;;;;;;27.25;73.94;97880.66;5125258;27;20200;-59
2023/08/06 16:06:45;;;;;;;2.80;2.10;;;;;;;27.22;71.89;97888.25;5125554;27;20383;-59
2023/08/06 16:09:12;;;;;;;2.10;1.83;;;;;;;27.03;72.25;97888.56;5125910;27;20585;-59
2023/08/06 16:11:39;;;;;;;2.47;1.75;;;;;;;27.02;74.38;97884.38;5125740;27;20684;-59
2023/08/06 16:14:06;;;;;;;3.20;2.25;;;;;;;26.96;74.76;97889.78;5125292;27;20192;-58
2023/08/06 16:16:33;;;;;;;3.60;2.20;;;;;;;26.86;74.31;97895.72;5125106;27;20193;-58
2023/08/06 16:19:02;;;;;;;2.67;2.10;;;;;;;26.74;76.30;97893.25;5125220;27;20227;-58
2023/08/06 16:21:29;;;;;;;2.60;1.92;;;;;;;26.57;75.73;97903.00;5124835;28;20197;-58
2023/08/06 16:23:56;;;;;;;2.63;1.85;;;;;;;26.50;75.69;97907.59;5124674;27;20208;-59
2023/08/06 16:26:23;;;;;;;2.67;1.98;;;;;;;26.28;75.71;97907.56;5124094;27;20232;-58
2023/08/06 16:28:50;;;;;;;3.13;2.25;;;;;;;26.20;76.56;97909.53;5123657;27;20212;-58
2023/08/06 16:31:17;;;;;;;3.05;2.47;;;;;;;26.08;77.64;97910.69;5125294;27;20201;-58
2023/08/06 16:33:44;;;;;;;2.95;2.00;;;;;;;26.02;78.39;97911.63;5125427;27;20225;-58
2023/08/06 16:36:12;;;;;;;2.67;2.05;;;;;;;25.96;79.46;97914.19;5125217;27;20204;-57
2023/08/06 16:38:39;;;;;;;4.45;2.25;;;;;;;25.83;78.81;97922.38;5124838;27;20209;-57
2023/08/06 16:41:05;;;;;;;3.38;2.20;;;;;;;25.81;79.66;97919.16;5125115;27;20197;-57
2023/08/06 16:43:32;;;;;;;3.15;2.00;;;;;;;25.69;80.65;97918.44;5121076;27;20214;-57
2023/08/06 16:45:59;;;;;;;3.10;2.15;;;;;;;25.67;81.68;97925.72;5111265;28;20676;-58
2023/08/06 16:48:27;;;;;;;6.13;3.88;;;;;;;25.67;82.72;97923.91;5111202;28;20692;-58
2023/08/06 16:50:55;;;;;;;10.25;7.13;;;;;;;25.67;82.70;97925.72;5110944;28;20196;-58
2023/08/06 16:53:24;;;;;;;11.55;7.63;;;;;;;25.60;84.82;97925.06;5110907;28;20353;-59
2023/08/06 16:55:51;;;;;;;7.13;4.50;;;;;;;25.60;84.69;97927.69;5111329;28;20197;-56
2023/08/06 16:58:18;;;;;;;11.98;7.57;;;;;;;25.52;84.70;97929.69;5111368;28;20205;-58
2023/08/06 17:00:45;;;;;;;6.38;4.55;;;;;;;25.50;86.32;97931.72;5111118;28;20213;-57
2023/08/06 17:03:12;;;;;;;10.68;7.32;;;;;;;25.57;87.85;97928.16;5110565;28;20217;-57
2023/08/06 17:05:40;;;;;;;7.80;5.38;;;;;;;25.44;87.44;97932.66;5110833;28;20210;-58
2023/08/06 17:08:07;;;;;;;16.73;9.23;;;;;;;25.38;88.00;97932.81;5110409;28;20197;-58
2023/08/06 17:10:38;;;;;;;11.88;7.18;;;;;;;25.34;89.70;97935.13;5110545;28;20190;-58
2023/08/06 17:13:05;;;;;;;11.52;7.13;;;;;;;25.23;91.28;97930.72;5110583;28;20797;-57
2023/08/06 17:15:33;;;;;;;8.80;5.43;;;;;;;24.93;89.83;97934.31;5110677;28;20197;-58
2023/08/06 17:18:00;;;;;;;12.23;6.20;;;;;;;24.95;91.53;97934.88;5110733;28;20204;-58
2023/08/06 17:20:26;;;;;;;4.97;3.40;;;;;;;24.93;92.25;97933.50;5110740;28;20198;-58
2023/08/06 17:22:53;;;;;;;8.13;3.85;;;;;;;24.85;92.17;97925.00;5110496;28;20198;-58
2023/08/06 17:25:22;;;;;;;11.30;5.50;;;;;;;24.79;93.23;97933.00;5110136;28;20198;-57
2023/08/06 17:27:50;;;;;;;4.47;3.35;;;;;;;24.75;93.22;97934.47;5110610;28;20292;-57
2023/08/06 17:30:18;;;;;;;4.13;2.70;;;;;;;24.67;93.96;97927.78;5110426;28;20350;-58
2023/08/06 17:32:45;;;;;;;4.18;2.78;;;;;;;24.60;95.22;97930.50;5110225;28;20785;-58
2023/08/06 17:35:12;;;;;;;4.57;2.60;;;;;;;24.48;95.68;97934.97;5110248;28;20747;-58
2023/08/06 17:37:39;;;;;;;5.72;2.65;;;;;;;24.47;95.99;97949.06;5110350;28;20216;-58
2023/08/06 17:40:08;;;;;;;6.57;2.53;;;;;;;24.48;97.06;97945.41;5110254;28;20653;-58
2023/08/06 17:42:34;;;;;;;3.40;2.53;;;;;;;24.43;97.92;97947.13;5110001;28;20210;-58
2023/08/06 17:45:03;;;;;;;4.03;2.85;;;;;;;24.36;98.17;97941.97;5110216;28;20193;-58
2023/08/06 17:47:30;;;;;;;3.88;2.72;;;;;;;24.29;98.84;97946.50;5110158;28;20213;-57
2023/08/06 17:49:57;;;;;;;3.53;2.70;;;;;;;24.25;99.42;97955.84;5109865;28;20205;-58
2023/08/06 17:52:24;;;;;;;3.90;2.58;;;;;;;24.17;99.67;97954.34;5109893;28;20198;-58
2023/08/06 17:54:51;;;;;;;3.35;2.65;;;;;;;24.10;100.00;97951.84;5109516;28;20201;-58
2023/08/06 17:57:18;;;;;;;3.97;2.90;;;;;;;24.01;100.00;97955.81;5109388;28;20198;-58
2023/08/06 17:59:45;;;;;;;3.67;2.45;;;;;;;23.93;100.00;97961.34;5109884;28;20201;-57
2023/08/06 18:02:13;;;;;;;3.42;2.33;;;;;;;23.87;100.00;97975.31;5109724;28;20213;-58
2023/08/06 18:04:40;;;;;;;3.60;2.58;;;;;;;23.84;100.00;97965.31;5110127;28;20204;-57
2023/08/06 18:07:07;;;;;;;3.97;2.63;;;;;;;23.85;100.00;97966.91;5109850;28;20197;-57
2023/08/06 18:09:34;;;;;;;4.50;2.80;;;;;;;23.77;100.00;97969.84;5109688;28;20204;-58
2023/08/06 18:12:01;;;;;;;4.13;2.92;;;;;;;23.65;100.00;97962.75;5109390;28;20552;-58
2023/08/06 18:14:27;;;;;;;3.83;2.33;;;;;;;23.54;100.00;97963.50;5109742;28;20229;-57
2023/08/06 18:16:54;;;;;;;6.35;2.42;;;;;;;23.45;100.00;97972.66;5109502;28;20669;-58
2023/08/06 18:19:23;;;;;;;4.50;3.00;;;;;;;23.32;100.00;97971.00;5109424;28;20204;-58
2023/08/06 18:21:49;;;;;;;3.90;2.72;;;;;;;23.25;100.00;97984.13;5109647;28;20234;-57
2023/08/06 18:24:16;;;;;;;4.45;3.13;;;;;;;23.20;100.00;97991.81;5109180;28;20666;-57
2023/08/06 18:26:43;;;;;;;3.50;2.85;;;;;;;23.04;100.00;97998.44;5109336;28;20215;-58
2023/08/06 18:29:10;;;;;;;6.55;3.67;;;;;;;22.92;100.00;98004.53;5109316;28;20205;-57
2023/08/06 18:31:37;;;;;;;4.75;3.25;;;;;;;22.90;100.00;98003.97;5109247;28;20232;-57
2023/08/06 18:34:05;;;;;;;5.55;3.88;;;;;;;22.86;100.00;98018.44;5109123;28;20298;-57
2023/08/06 18:36:33;;;;;;;5.82;4.13;;;;;;;22.81;100.00;98024.31;5109242;28;20198;-58
2023/08/06 18:39:00;;;;;;;6.50;4.43;;;;;;;22.71;100.00;98024.00;5108796;28;20197;-57
2023/08/06 18:41:27;;;;;;;9.02;4.80;;;;;;;22.65;100.00;98035.28;5108932;28;20212;-58
2023/08/06 18:43:54;;;;;;;9.27;4.93;;;;;;;22.60;100.00;98034.13;5109030;28;20209;-57
2023/08/06 18:46:21;;;;;;;7.97;4.75;;;;;;;22.69;100.00;98037.25;5109198;28;20194;-57
2023/08/06 18:48:47;;;;;;;9.10;5.47;;;;;;;22.68;100.00;98051.28;5108912;27;20197;-57
2023/08/06 18:51:15;;;;;;;9.73;6.07;;;;;;;22.60;100.00;98054.13;5108954;28;20220;-57
2023/08/06 18:53:43;;;;;;;8.05;5.03;;;;;;;22.67;100.00;98059.31;5108861;28;20243;-57
2023/08/06 18:56:10;;;;;;;7.85;4.88;;;;;;;22.68;100.00;98066.09;5108473;28;20200;-57
2023/08/06 18:58:37;;;;;;;11.10;6.20;;;;;;;22.55;100.00;98067.81;5108804;28;20198;-57
2023/08/06 19:01:04;;;;;;;9.73;5.78;;;;;;;22.56;100.00;98068.63;5108710;28;20193;-58
2023/08/06 19:03:31;;;;;;;11.85;6.35;;;;;;;22.54;100.00;98065.41;5108718;28;20197;-57
2023/08/06 19:06:00;;;;;;;9.57;6.05;;;;;;;22.52;100.00;98063.03;5108771;28;20193;-57
2023/08/06 19:08:27;;;;;;;9.65;6.00;;;;;;;22.59;100.00;98071.59;5108591;28;20273;-57
2023/08/06 19:10:56;;;;;;;10.98;6.28;;;;;;;22.59;100.00;98079.41;5108540;28;20591;-57
2023/08/06 19:13:22;;;;;;;8.75;5.50;;;;;;;22.47;100.00;98077.69;5108400;28;20705;-57
2023/08/06 19:15:49;;;;;;;10.15;6.47;;;;;;;22.34;100.00;98081.19;5108609;28;20194;-57
2023/08/06 19:18:16;;;;;;;9.65;5.78;;;;;;;22.34;100.00;98078.56;5108390;28;20231;-57
2023/08/06 19:20:44;;;;;;;8.27;5.57;;;;;;;22.23;100.00;98082.69;5108472;28;20201;-57
2023/08/06 19:23:15;;;;;;;10.15;5.95;;;;;;;22.13;100.00;98090.91;5108273;28;20752;-57
2023/08/06 19:25:43;;;;;;;7.88;5.22;;;;;;;22.09;98.27;98094.16;5108605;28;20335;-57
2023/08/06 19:28:11;;;;;;;9.88;5.00;;;;;;;22.00;97.82;98100.63;5108102;28;20197;-57
2023/08/06 19:30:40;;;;;;;10.77;5.07;;;;;;;22.03;98.47;98106.19;5108255;28;20200;-58
2023/08/06 19:33:08;;;;;;;8.60;5.00;;;;;;;22.00;98.11;98116.22;5108055;28;20220;-57
2023/08/06 19:35:35;;;;;;;7.47;4.68;;;;;;;21.88;98.66;98113.47;5108379;28;20272;-57
2023/08/06 19:38:02;;;;;;;7.37;4.67;;;;;;;21.79;99.33;98125.94;5108024;28;20200;-57
2023/08/06 19:40:29;;;;;;;7.75;4.93;;;;;;;21.74;100.00;98123.13;5108187;28;20325;-57
2023/08/06 19:42:55;;;;;;;8.07;4.83;;;;;;;21.67;100.00;98124.94;5108420;28;20224;-57
2023/08/06 19:45:24;;;;;;;8.53;4.90;;;;;;;21.62;100.00;98130.78;5108716;28;20204;-58
2023/08/06 19:47:50;;;;;;;7.37;4.57;;;;;;;21.63;100.00;98134.19;5108012;28;20204;-58
2023/08/06 19:50:17;;;;;;;8.40;4.93;;;;;;;21.62;100.00;98132.59;5108216;28;20204;-57
2023/08/06 19:52:45;;;;;;;6.60;4.57;;;;;;;21.62;100.00;98135.19;5107962;28;20676;-57
2023/08/06 19:55:12;;;;;;;6.90;4.37;;;;;;;21.64;100.00;98133.16;5107970;28;20236;-57
2023/08/06 19:57:39;;;;;;;7.57;4.63;;;;;;;21.57;100.00;98137.59;5108199;28;20606;-57
2023/08/06 20:00:07;;;;;;;6.33;4.20;;;;;;;21.57;100.00;98140.22;5107975;28;20211;-57
2023/08/06 20:02:35;;;;;;;7.87;4.73;;;;;;;21.61;100.00;98150.00;5108373;28;20221;-57
2023/08/06 20:05:03;;;;;;;5.67;4.17;;;;;;;21.55;100.00;98156.00;5108253;28;20200;-57
2023/08/06 20:07:30;;;;;;;6.73;4.40;;;;;;;21.48;100.00;98156.03;5107738;28;20233;-58
2023/08/06 20:09:57;;;;;;;7.57;3.87;;;;;;;21.41;100.00;98154.44;5107936;28;20225;-57
2023/08/06 20:12:24;;;;;;;6.47;4.07;;;;;;;21.41;100.00;98160.47;5107840;28;20584;-57
2023/08/06 20:14:51;;;;;;;6.00;3.80;;;;;;;21.37;100.00;98154.03;5108170;28;20238;-57
2023/08/06 20:17:18;;;;;;;5.60;3.93;;;;;;;21.37;100.00;98150.66;5107794;28;20205;-57
2023/08/06 20:19:46;;;;;;;8.77;3.63;;;;;;;21.42;100.00;98151.66;5110172;28;20247;-57
2023/08/06 20:22:13;;;;;;;7.00;4.10;;;;;;;21.35;100.00;98161.25;5111566;28;20201;-57
2023/08/06 20:24:40;;;;;;;4.90;3.73;;;;;;;21.26;100.00;98165.03;5111617;28;20663;-57
2023/08/06 20:27:07;;;;;;;5.93;3.77;;;;;;;21.23;100.00;98162.84;5111479;27;20283;-57
2023/08/06 20:29:34;;;;;;;5.57;3.80;;;;;;;21.18;100.00;98165.25;5110544;28;20222;-58
2023/08/06 20:32:01;;;;;;;6.43;3.83;;;;;;;21.19;100.00;98166.84;5110820;28;20692;-57
2023/08/06 20:34:29;;;;;;;5.80;3.70;;;;;;;21.15;100.00;98160.47;5111598;28;20227;-57
2023/08/06 20:36:58;;;;;;;4.73;3.27;;;;;;;21.15;100.00;98160.47;5111456;28;20205;-57
2023/08/06 20:39:25;;;;;;;5.60;3.87;;;;;;;21.01;100.00;98155.25;5111457;28;20203;-57
2023/08/06 20:41:52;;;;;;;5.17;3.60;;;;;;;21.10;100.00;98157.66;5111742;28;20205;-58
2023/08/06 20:44:18;;;;;;;6.33;3.73;;;;;;;21.14;100.00;98158.84;5111660;28;20206;-57
2023/08/06 20:46:45;;;;;;;6.10;3.80;;;;;;;21.11;100.00;98169.66;5111268;28;20657;-57
2023/08/06 20:49:12;;;;;;;6.63;4.30;;;;;;;21.10;100.00;98168.84;5110945;28;20227;-58
2023/08/06 20:51:39;;;;;;;5.73;3.83;;;;;;;21.03;100.00;98184.47;5111541;28;20208;-57
2023/08/06 20:54:07;;;;;;;6.30;3.87;;;;;;;21.09;100.00;98184.63;5111372;28;20232;-58
2023/08/06 20:56:34;;;;;;;6.60;4.07;;;;;;;20.99;100.00;98183.25;5111051;28;20298;-57
2023/08/06 20:59:01;;;;;;;5.93;3.90;;;;;;;21.06;100.00;98182.44;5110990;28;20199;-57
2023/08/06 21:01:28;;;;;;;5.83;3.80;;;;;;;21.09;100.00;98193.25;5111009;28;20204;-57
2023/08/06 21:03:54;;;;;;;5.80;4.03;;;;;;;21.01;100.00;98201.25;5111090;28;20241;-58
2023/08/06 21:06:21;;;;;;;6.77;4.00;;;;;;;21.01;100.00;98201.25;5111077;28;20210;-58
2023/08/06 21:08:48;;;;;;;5.67;4.03;;;;;;;21.03;100.00;98197.47;5110795;28;20197;-58
2023/08/06 21:11:16;;;;;;;5.83;3.73;;;;;;;21.13;100.00;98198.84;5110444;28;20695;-58
2023/08/06 21:13:43;;;;;;;5.50;3.83;;;;;;;20.95;100.00;98208.03;5110615;28;20239;-57
2023/08/06 21:16:10;;;;;;;6.03;4.17;;;;;;;20.94;100.00;98208.22;5110983;28;20724;-58
2023/08/06 21:18:37;;;;;;;6.60;4.47;;;;;;;20.91;100.00;98214.63;5110418;28;20205;-58
2023/08/06 21:21:06;;;;;;;7.10;4.23;;;;;;;20.80;100.00;98213.44;5110414;28;20203;-58
2023/08/06 21:23:33;;;;;;;6.80;4.60;;;;;;;20.73;100.00;98222.19;5110569;28;20251;-58
2023/08/06 21:26:01;;;;;;;5.97;3.83;;;;;;;20.66;100.00;98229.19;5110477;28;20711;-57
2023/08/06 21:28:30;;;;;;;7.37;4.80;;;;;;;20.67;100.00;98241.16;5110383;28;20199;-58
2023/08/06 21:30:58;;;;;;;5.23;3.93;;;;;;;20.61;100.00;98241.94;5110297;28;20202;-58
2023/08/06 21:33:26;;;;;;;6.43;4.10;;;;;;;20.68;100.00;98234.97;5110645;28;20215;-57
2023/08/06 21:35:53;;;;;;;5.33;3.93;;;;;;;20.69;100.00;98249.56;5110272;28;20199;-57
2023/08/06 21:38:19;;;;;;;6.23;4.33;;;;;;;20.60;100.00;98246.34;5110534;28;20201;-58
2023/08/06 21:40:46;;;;;;;5.50;4.03;;;;;;;20.53;100.00;98245.50;5110094;28;20212;-57
2023/08/06 21:43:13;;;;;;;5.93;4.37;;;;;;;20.45;100.00;98250.84;5109977;28;20212;-57
2023/08/06 21:45:41;;;;;;;6.40;4.20;;;;;;;20.40;100.00;98264.44;5110209;28;20202;-58
2023/08/06 21:48:08;;;;;;;5.30;3.63;;;;;;;20.36;100.00;98250.22;5109896;28;20193;-58
2023/08/06 21:50:35;;;;;;;9.90;4.27;;;;;;;20.35;100.00;98264.19;5110014;28;20198;-57
2023/08/06 21:53:02;;;;;;;5.73;3.70;;;;;;;20.37;100.00;98251.84;5109953;28;20212;-57
2023/08/06 21:55:31;;;;;;;5.93;4.03;;;;;;;20.36;100.00;98258.00;5109794;28;20405;-58
2023/08/06 21:57:58;;;;;;;6.47;3.83;;;;;;;20.28;100.00;98259.00;5109747;28;20566;-58
2023/08/06 22:00:25;;;;;;;7.53;4.13;;;;;;;20.29;100.00;98249.41;5109838;28;20569;-58
2023/08/06 22:02:53;;;;;;;5.70;3.77;;;;;;;20.14;100.00;98257.31;5110224;28;20200;-57
2023/08/06 22:05:20;;;;;;;5.97;4.20;;;;;;;20.03;100.00;98265.66;5110158;28;20201;-57
2023/08/06 22:07:47;;;;;;;8.33;4.70;;;;;;;19.97;100.00;98267.22;5109487;28;20607;-58
2023/08/06 22:10:14;;;;;;;7.40;4.27;;;;;;;19.86;100.00;98265.94;5109935;28;20699;-58
2023/08/06 22:12:41;;;;;;;6.20;4.00;;;;;;;19.81;100.00;98267.50;5109521;28;20204;-57
2023/08/06 22:15:09;;;;;;;5.47;3.80;;;;;;;19.81;100.00;98277.88;5109861;28;20269;-57
2023/08/06 22:17:35;;;;;;;5.40;3.23;;;;;;;19.66;100.00;98286.59;5109556;27;20259;-57
2023/08/06 22:20:05;;;;;;;7.50;4.10;;;;;;;19.60;100.00;98299.44;5109242;28;20692;-58
2023/08/06 22:22:32;;;;;;;5.70;3.67;;;;;;;19.50;100.00;98297.19;5109435;28;20204;-57
2023/08/06 22:24:59;;;;;;;6.07;4.30;;;;;;;19.42;100.00;98294.72;5109287;28;20302;-57
2023/08/06 22:27:26;;;;;;;9.67;4.17;;;;;;;19.39;100.00;98290.72;5109656;28;20200;-58
2023/08/06 22:29:53;;;;;;;6.30;4.00;;;;;;;19.35;100.00;98293.88;5109408;28;20198;-58
2023/08/06 22:32:19;;;;;;;7.17;4.23;;;;;;;19.34;100.00;98292.25;5109248;28;20207;-58
2023/08/06 22:34:46;;;;;;;5.73;3.90;;;;;;;19.25;100.00;98290.78;5108963;28;20246;-58
2023/08/06 22:37:14;;;;;;;5.80;4.10;;;;;;;19.19;100.00;98290.53;5109146;28;20208;-58
2023/08/06 22:39:41;;;;;;;5.90;3.97;;;;;;;19.12;100.00;98300.06;5108862;28;20209;-57
2023/08/06 22:42:08;;;;;;;5.57;3.70;;;;;;;19.12;100.00;98301.84;5108622;28;20230;-57
2023/08/06 22:44:35;;;;;;;5.47;3.63;;;;;;;19.13;100.00;98312.00;5109334;28;20276;-57
2023/08/06 22:47:02;;;;;;;4.70;3.67;;;;;;;19.10;100.00;98311.59;5108723;28;20856;-58
2023/08/06 22:49:29;;;;;;;5.87;3.93;;;;;;;19.12;100.00;98313.00;5108789;28;20219;-57
2023/08/06 22:51:55;;;;;;;6.30;4.00;;;;;;;19.01;100.00;98303.13;5108786;28;20204;-57
2023/08/06 22:54:24;;;;;;;5.23;3.50;;;;;;;19.03;100.00;98306.34;5108803;28;20228;-57
2023/08/06 22:56:51;;;;;;;4.97;3.37;;;;;;;19.04;100.00;98305.34;5108747;28;20205;-58
2023/08/06 22:59:17;;;;;;;6.33;3.60;;;;;;;19.00;100.00;98296.34;5108882;28;20440;-57
2023/08/06 23:01:44;;;;;;;4.77;2.97;;;;;;;19.02;100.00;98299.53;5108723;28;20221;-57
2023/08/06 23:04:11;;;;;;;5.03;3.07;;;;;;;18.99;100.00;98305.09;5108465;28;20227;-57
2023/08/06 23:06:38;;;;;;;5.07;3.30;;;;;;;18.99;100.00;98310.28;5108825;28;20214;-58
2023/08/06 23:09:05;;;;;;;4.80;3.30;;;;;;;19.02;100.00;98312.50;5108374;28;20198;-57
2023/08/06 23:11:33;;;;;;;4.13;2.93;;;;;;;18.96;100.00;98324.38;5107557;28;20202;-57
2023/08/06 23:14:00;;;;;;;5.07;2.93;;;;;;;18.86;100.00;98323.91;5107271;28;20201;-57
2023/08/06 23:16:27;;;;;;;4.60;3.20;;;;;;;18.78;100.00;98324.78;5108350;28;20293;-57
2023/08/06 23:18:54;;;;;;;4.07;3.00;;;;;;;18.77;100.00;98323.19;5108709;28;20204;-58
2023/08/06 23:21:23;;;;;;;4.13;2.90;;;;;;;18.79;100.00;98330.78;5108457;28;20205;-57
2023/08/06 23:23:49;;;;;;;3.07;2.50;;;;;;;18.78;100.00;98321.41;5108663;28;20297;-57
2023/08/06 23:26:16;;;;;;;5.07;2.60;;;;;;;18.75;100.00;98325.16;5108334;28;20697;-58
2023/08/06 23:28:45;;;;;;;3.87;2.70;;;;;;;18.68;100.00;98339.81;5108561;28;20590;-57
2023/08/06 23:31:12;;;;;;;3.67;2.33;;;;;;;18.73;100.00;98337.50;5108005;28;20198;-57
2023/08/06 23:33:39;;;;;;;4.40;2.73;;;;;;;18.69;100.00;98341.41;5108422;28;20201;-57
2023/08/06 23:36:06;;;;;;;3.83;2.40;;;;;;;18.57;100.00;98335.06;5108087;28;20234;-57
2023/08/06 23:38:33;;;;;;;3.53;2.40;;;;;;;18.60;100.00;98339.91;5108184;28;20581;-57
2023/08/06 23:41:00;;;;;;;2.97;2.30;;;;;;;18.49;100.00;98346.31;5108219;28;20210;-57
2023/08/06 23:43:26;;;;;;;3.37;2.37;;;;;;;18.44;100.00;98348.66;5108315;28;20266;-57
2023/08/06 23:45:55;;;;;;;2.93;2.10;;;;;;;18.40;100.00;98347.41;5108438;28;20212;-58
2023/08/06 23:48:22;;;;;;;3.13;2.50;;;;;;;18.33;100.00;98347.31;5108120;28;20227;-57
2023/08/06 23:50:49;;;;;;;2.87;2.13;;;;;;;18.28;100.00;98349.63;5108222;28;20203;-57
2023/08/06 23:53:16;;;;;;;2.73;1.70;;;;;;;18.27;100.00;98347.25;5108265;28;20222;-57
2023/08/06 23:55:43;;;;;;;3.03;2.23;;;;;;;18.17;100.00;98342.31;5112012;28;20239;-58
2023/08/06 23:58:10;;;;;;;3.40;2.10;;;;;;;18.19;100.00;98340.34;5112250;28;20194;-57
